x

Boston 16 Nm East Of Boston, Ma (44013) Wave Buoy

8:50 - Sun 23rd Nov 2014 All times are EST. -5 hours from GMT.

  • Sig Wave height 1.0ft
  • Swell Direction
  • Peak Period 3s
  • Average Period 3s
  • Wind
    11mph, 13mph gusts
  • Sea Temp 50°f
  • Ar Temp 49°f
  • Sea Pressure 1020.5mb
  • Boston 16 Nm East Of Boston, Ma
  • Boston 16 Nm East Of Boston, Ma

More Historic Weather Station data

Upgrade to MSW Pro to gain access to the past 30 days of data for over 8000 Wavebouys and Weather Stations around the globe.

Join Pro

Comparision Forecast

View Surf forecast
   
Dom 11/23 8:50 1ft 3s 3s 11 13 mph 1020.5mb 50f 49f
7:50 1ft 3s 3s 7 9 mph 1020.9mb 50f 50f
6:50 1ft 9s 4s 11 13 mph 1021mb 50f 51f
5:50 0.7ft  -  4s 11 13 mph 1021mb 50f 50f
4:50 0.7ft  -  4s 11
mph
1020.7mb 50f 52f
3:50 0.7ft  -  4s 2 4 mph 1019.9mb 50f 53f
2:50 0.7ft  -  4s 9 11 mph 1019.7mb 50f 52f
1:50 1ft 5s 4s 7
mph
1019.4mb 50f 53f
12:50 1ft 3s 3s 7 9 mph 1019.4mb 50f 51f
11:50 1ft 3s 3s 9 11 mph 1019.6mb 50f 51f
10:50 1.3ft 3s 3s 13 18 mph 1020.6mb 50f 49f
9:50 1.6ft 3s 3s 11 16 mph 1020.7mb 50f 47f
8:50 1.6ft 3s 3s 13 16 mph 1020.4mb 50f 47f
7:50 1.6ft 3s 3s 13 18 mph 1020mb 50f 47f
6:50 1.6ft 3s 3s 16 18 mph 1019.5mb 50f 46f
5:50 2ft 3s 3s 16 20 mph 1019mb 50f 46f
4:50 2.5ft 3s 3s 22 27 mph 1018.4mb 50f 47f
3:50 2.5ft 3s 3s 22 27 mph 1018.2mb 50f 47f
2:50 2ft 3s 3s 20 22 mph 1018.3mb 50f 46f
1:50 2.5ft 3s 3s 20 25 mph 1018.1mb 50f 46f
12:50 3ft 4s 3s 20 27 mph 1018.1mb 50f 45f
Sáb 11/22 11:50 3.5ft 4s 4s 22 27 mph 1017.9mb 50f 45f
10:50 3.5ft 4s 4s 27 34 mph 1017.2mb 50f 45f
9:50 3.5ft 4s 4s 22 27 mph 1018mb 50f 43f
8:50 4ft 4s 4s 27 31 mph 1018.2mb 50f 42f
7:50 3.5ft 4s 4s 27 34 mph 1018.4mb 50f 42f
6:50 3.5ft 4s 4s 25 31 mph 1019mb 50f 42f
5:50 3ft 3s 3s 25 34 mph 1019.8mb 50f 42f
4:50 2.5ft 3s 3s 25 34 mph 1020.3mb 50f 42f
3:50 2.5ft 3s 3s 20 25 mph 1020.9mb 50f 43f
2:50 2.5ft 3s 3s 20 27 mph 1021.3mb 50f 44f
1:50 2.5ft 3s 3s 20 22 mph 1022.2mb 50f 42f
12:50 2.5ft 4s 3s 20 25 mph 1023.1mb 50f 39f
11:50 3ft 3s 3s 22 29 mph 1024.7mb 49f 37f
10:50 2.5ft 3s 3s 22 27 mph 1026.6mb 49f 35f
9:50 2ft 3s 3s 20 27 mph 1028.1mb 49f 33f
8:50 2.5ft 4s 3s 18 25 mph 1029.3mb 49f 31f
7:50 2ft 3s 3s 20 25 mph 1029.8mb 49f 30f
6:50 2.5ft 3s 3s 22 27 mph 1029.6mb 49f 30f
5:50 2ft 3s 3s 20 27 mph 1029.9mb 49f 29f
4:50 2ft 3s 3s 18 25 mph 1029.9mb 49f 29f
3:50 2.5ft 4s 3s 20 27 mph 1030.2mb 49f 29f
2:50 3ft 4s 3s 20 27 mph 1030.1mb 49f 30f
1:50 3ft 4s 3s 18 25 mph 1030mb 49f 30f
12:50 3ft 4s 4s 20 27 mph 1029.3mb 49f 30f
Sex 11/21 11:50 3.5ft 4s 4s 25 36 mph 1029.1mb 49f 30f
10:50 3.5ft 4s 4s 22 31 mph 1028.7mb 49f 31f
9:50 4ft 4s 4s 27 34 mph 1027.9mb 49f 32f
8:50 3.5ft 4s 4s 29 36 mph 1027.5mb 50f 32f
7:50 3.5ft 4s 4s 20 29 mph 1027.5mb 50f 33f
6:50 3.5ft 4s 4s 27 31 mph 1026.5mb 50f 33f
5:50 3.5ft 5s 4s 25 34 mph 1025.7mb 50f 33f
4:50 4ft 5s 4s 25 31 mph 1024.3mb 50f 34f
3:50 4ft 4s 4s 22 29 mph 1023.3mb 50f 35f
2:50 3.5ft 4s 4s 22 27 mph 1021.7mb 50f 34f
1:50 3.5ft 4s 4s 27 31 mph 1020mb 50f 34f
12:50 3.5ft 4s 4s 25 31 mph 1019.3mb 50f 34f
11:50 3.5ft 4s 4s 27 34 mph 1018.6mb 50f 33f
10:50 3.5ft 4s 4s 25 36 mph 1018.5mb 50f 33f
9:50 3.5ft 4s 4s 27 34 mph 1018.3mb 50f 31f
8:50 4ft 4s 4s 27 38 mph 1017.7mb 50f 31f
7:50 3.5ft 5s 4s 29 34 mph 1016.9mb 50f 31f
6:50 3.5ft 4s 4s 27 34 mph 1015.9mb 50f 31f
5:50 3.5ft 4s 4s 29 36 mph 1014.8mb 50f 31f
4:50 3.5ft 4s 4s 31 38 mph 1014mb 50f 32f
3:50 3.5ft 4s 4s 29 36 mph 1013.7mb 50f 32f
2:50 3.5ft 4s 4s 27 31 mph 1013.6mb 50f 33f
1:50 2.5ft 3s 3s 25 31 mph 1013.3mb 50f 34f
12:50 2.5ft 3s 3s 20 22 mph 1012.8mb 50f 34f
Qui 11/20 11:50 2.5ft 4s 3s 22 29 mph 1012.4mb 50f 36f
10:50 2.5ft 3s 3s 20 25 mph 1012.2mb 50f 36f
9:50 2.5ft 4s 3s 20 25 mph 1012mb 50f 37f
8:50 2.5ft 3s 3s 18 22 mph 1011.8mb 50f 38f
7:50 2ft 4s 3s 22 25 mph 1011.1mb 50f 39f
6:50 2.5ft 4s 3s 18 22 mph 1010.1mb 50f 42f
5:50 3ft 4s 4s 20 25 mph 1009mb 50f 44f
4:50  -   -   -  22 29 mph 1008mb 50f 46f
3:50 3ft 4s 3s 25 29 mph 1007.3mb 50f 47f
2:50 2.5ft 4s 3s 22 27 mph 1007.1mb 50f 47f
1:50 2.5ft 4s 3s 22 27 mph 1007.6mb 50f 47f
12:50 2.5ft 3s 3s 20 27 mph 1008.6mb 50f 46f
11:50 2ft 3s 3s 22 27 mph 1009.4mb 50f 44f
10:50 2ft 3s 3s 16 20 mph 1010.9mb 50f 43f
9:50 2.5ft 3s 3s 22 27 mph 1011.7mb 50f 41f
8:50 2ft 3s 3s 22 27 mph 1012.5mb 50f 39f
7:50 1.6ft 3s 3s 20 25 mph 1013.1mb 50f 39f
6:50 1.6ft 3s 3s 16 20 mph 1013.5mb 50f 38f
5:50 2ft 3s 3s 18 22 mph 1013.5mb 50f 38f
4:50 2.5ft 3s 3s 22 27 mph 1014.3mb 50f 37f
3:50 1.6ft 3s 3s 20 25 mph 1015.3mb 50f 36f